Latest Weather Observations for Cocos Island

IDW60801

Issued at 8:02 pm WST Tuesday 1 September 2015 (issued every 30 minutes, with the page automatically refreshed every 10 minutes)

About weather observations | Map of weather stations | Latest weather observations for WA | Other Formats
Station Details ID: 200284 Name: COCOS ISLAND AIRPORT Lat: -12.19 Lon: 96.83 Height: 3.0 m
Data from the previous 72 hours. | See also: Recent months at Cocos Island
Date/Time
WST
Temp
°C
App
Temp
°C
Dew
Point
Rel
Hum
%
Delta-T
°C
Wind Press
QNH
hPa
Press
MSL
hPa
Rain
since 9 am
mm
Dir
 
Spd
km/h
Gust
km/h
Spd
kts
Gust
kts
01/08:00pm 26.2 27.1 21.5 75 3.1 E 19 24 10 13 1014.2 1014.2 0.2
01/07:30pm 26.2 27.0 21.4 75 3.2 E 19 28 10 15 1014.0 - 0.2
01/07:00pm 26.5 26.7 21.4 73 3.4 E 22 30 12 16 1013.7 - 0.2
01/06:30pm 26.9 27.3 21.7 73 3.5 E 22 30 12 16 1013.4 - 0.2
01/06:00pm 27.1 27.1 21.7 72 3.6 E 24 33 13 18 1013.1 - 0.2
01/05:30pm 27.1 26.2 21.5 71 3.7 E 28 35 15 19 1013.0 - 0.2
01/05:00pm 27.3 27.0 21.8 72 3.7 E 26 33 14 18 1013.0 1013.0 0.2
01/04:30pm 27.3 27.5 22.1 73 3.5 E 24 33 13 18 1013.1 - 0.2
01/04:00pm 27.5 27.3 21.3 69 4.1 E 24 32 13 17 1013.3 - 0.2
01/03:30pm 27.9 27.7 21.3 67 4.4 E 24 35 13 19 1013.5 - 0.2
01/03:00pm 27.6 26.7 21.4 69 4.1 E 28 35 15 19 1013.9 - 0.2
01/02:30pm 27.4 26.8 21.9 72 3.7 E 28 35 15 19 1014.4 - 0.2
01/02:00pm 27.5 26.3 21.5 70 4.0 E 30 35 16 19 1014.7 1014.7 0.2
01/01:30pm 27.0 25.6 21.9 73 3.4 E 32 35 17 19 1015.0 - 0.2
01/01:00pm 26.6 25.9 21.8 75 3.2 E 28 33 15 18 1015.2 - 0.0
01/12:30pm 25.2 24.9 21.1 78 2.7 ESE 24 33 13 18 1015.7 - 0.0
01/12:00pm 25.7 26.3 22.1 80 2.4 E 22 28 12 15 1015.9 - 0.0
01/11:30am 26.9 25.2 21.3 71 3.7 E 32 37 17 20 1016.0 - 0.0
01/11:00am 26.5 26.4 21.5 74 3.3 E 24 33 13 18 1016.0 1016.0 0.8
01/10:30am 25.4 26.5 22.3 83 2.1 E 20 35 11 19 1015.9 - 0.8
01/10:07am 23.8 25.6 22.5 92 0.9 ESE 17 26 9 14 1015.9 - 0.8
01/10:00am 23.4 24.4 22.2 93 0.8 E 20 28 11 15 1015.9 - 0.8
01/09:52am 23.3 24.2 21.9 92 0.9 E 20 26 11 14 1015.9 - 0.8
01/09:30am 23.3 20.2 21.9 92 0.9 ENE 41 56 22 30 1015.7 - 0.2
01/09:23am 24.5 21.0 21.8 85 1.8 ENE 43 56 23 30 1015.4 - 0.0
01/09:00am 25.3 25.7 20.9 76 2.9 SE 20 24 11 13 1015.4 - 0.0
01/08:30am 24.9 25.4 21.1 79 2.5 E 20 28 11 15 1015.1 - 0.0
01/08:00am 25.2 25.3 20.4 74 3.1 SE 20 28 11 15 1015.1 1015.1 0.0
01/07:30am 25.0 25.0 20.1 74 3.2 ESE 20 30 11 16 1014.9 - 0.0
01/07:00am 24.9 24.4 20.0 74 3.2 ESE 22 28 12 15 1014.8 - 0.0
01/06:30am 24.6 25.2 20.3 77 2.8 ESE 17 22 9 12 1014.5 - 0.0
01/06:00am 24.7 24.7 19.7 73 3.2 ESE 19 28 10 15 1014.5 - 0.0
01/05:30am 24.8 24.5 19.5 72 3.4 ESE 20 28 11 15 1014.7 - 0.0
01/05:00am 24.8 24.1 19.5 72 3.4 ESE 22 30 12 16 1014.8 1014.8 0.0
01/04:30am 24.7 24.7 20.1 75 3.0 ESE 20 32 11 17 1015.0 - 0.0
01/04:00am 24.8 24.0 20.0 74 3.1 ESE 24 30 13 16 1015.2 - 0.0
01/03:30am 25.0 24.7 20.4 75 3.0 ESE 22 30 12 16 1015.3 - 0.0
01/03:00am 25.0 23.8 20.1 74 3.2 ESE 26 35 14 19 1015.3 - 0.0
01/02:30am 25.1 23.9 20.0 73 3.3 ESE 26 35 14 19 1015.7 - 0.0
01/02:00am 25.1 24.1 20.5 75 3.0 ESE 26 37 14 20 1015.9 1015.9 0.0
01/01:30am 25.3 23.8 20.2 73 3.3 ESE 28 35 15 19 1016.2 - 0.0
01/01:00am 25.3 23.7 20.7 75 3.0 ESE 30 41 16 22 1016.6 - 0.0
01/12:30am 25.4 23.7 20.5 74 3.2 ESE 30 37 16 20 1016.4 - 0.0
01/12:00am 25.5 24.1 20.4 73 3.3 ESE 28 35 15 19 1016.4 - 0.0
 
Date/Time
WST
Temp
°C
App
Temp
°C
Dew
Point
Rel
Hum
%
Delta-T
°C
Wind Press
QNH
hPa
Press
MSL
hPa
Rain
since 9 am
mm
Dir
 
Spd
km/h
Gust
km/h
Spd
kts
Gust
kts
31/11:30pm 25.5 23.8 19.9 71 3.6 ESE 28 35 15 19 1016.5 - 0.0
31/11:00pm 25.6 24.5 20.2 72 3.5 ESE 26 37 14 20 1016.7 1016.7 0.0
31/10:30pm 25.7 23.7 20.7 74 3.3 ESE 32 37 17 20 1016.7 - 0.0
31/10:00pm 25.8 24.3 20.3 71 3.6 ESE 28 39 15 21 1016.6 - 0.0
31/09:30pm 25.8 24.3 20.3 71 3.6 ESE 28 35 15 19 1016.3 - 0.0
31/09:00pm 25.9 24.4 20.2 71 3.7 ESE 28 37 15 20 1016.1 - 0.0
31/08:30pm 26.0 25.8 21.3 75 3.1 ESE 24 32 13 17 1015.7 - 0.0
31/08:00pm 25.9 25.0 20.6 72 3.5 ESE 26 35 14 19 1015.3 1015.3 0.0
31/07:30pm 25.9 25.0 20.6 72 3.5 ESE 26 33 14 18 1015.1 - 0.0
31/07:00pm 26.1 24.8 20.6 71 3.6 ESE 28 35 15 19 1014.9 - 0.0
31/06:30pm 26.5 25.3 20.9 71 3.7 ESE 28 33 15 18 1014.7 - 0.0
31/06:00pm 26.6 26.1 20.7 70 3.9 ESE 24 33 13 18 1014.5 - 0.0
31/05:30pm 26.9 25.8 20.3 67 4.3 ESE 26 35 14 19 1014.4 - 0.0
31/05:00pm 27.2 26.3 20.7 67 4.3 ESE 26 35 14 19 1014.5 1014.5 0.0
31/04:30pm 27.4 26.8 21.2 69 4.1 ESE 26 33 14 18 1014.8 - 0.0
31/03:30pm 26.8 25.5 20.7 69 4.0 ESE 28 37 15 20 1015.2 - 0.0
31/03:00pm 27.7 26.3 21.2 67 4.3 ESE 30 39 16 21 1015.4 - 0.0
31/02:30pm 27.9 27.1 21.6 68 4.2 ESE 28 43 15 23 1015.7 - 0.0
31/02:00pm 27.6 26.6 21.3 68 4.2 ESE 28 41 15 22 1016.0 1016.0 0.0
31/01:30pm 27.4 26.2 20.9 67 4.3 ESE 28 41 15 22 1016.3 - 0.0
31/01:00pm 27.6 26.3 21.3 68 4.2 ESE 30 43 16 23 1016.6 - 0.0
31/12:30pm 27.4 26.3 21.1 68 4.2 ESE 28 43 15 23 1016.9 - 0.0
31/12:00pm 27.5 26.5 21.2 68 4.2 E 28 43 15 23 1017.2 - 0.0
31/11:30am 27.1 26.4 20.2 66 4.5 ESE 24 35 13 19 1017.4 - 0.0
31/11:00am 26.9 26.0 19.8 65 4.6 ESE 24 33 13 18 1017.5 1017.5 0.0
31/10:30am 26.8 25.1 19.9 66 4.5 E 28 35 15 19 1017.4 - 0.0
31/10:00am 26.2 24.8 19.7 67 4.2 E 26 35 14 19 1017.0 - 0.0
31/09:30am 26.2 25.6 20.4 70 3.8 E 24 33 13 18 1016.5 - 0.0
31/09:00am 25.8 24.9 19.9 70 3.8 E 24 32 13 17 1016.2 - 0.0
31/08:30am 25.4 24.3 20.2 73 3.4 E 26 39 14 21 1015.8 - 0.0
31/08:00am 25.0 24.0 19.7 72 3.4 ESE 24 33 13 18 1015.6 1015.6 0.0
31/07:30am 24.7 24.7 20.2 76 2.9 E 20 33 11 18 1015.3 - 0.0
31/07:00am 24.8 24.4 20.2 75 3.0 ESE 22 30 12 16 1015.3 - 0.0
31/06:30am 24.8 23.9 19.8 74 3.2 ESE 24 32 13 17 1015.2 - 0.0
31/06:00am 24.9 23.4 19.4 71 3.5 ESE 26 35 14 19 1015.2 - 0.0
31/05:30am 24.9 23.9 19.6 72 3.4 ESE 24 35 13 19 1015.3 - 0.0
31/05:00am 24.8 23.8 19.7 73 3.3 ESE 24 35 13 19 1015.3 1015.3 0.0
31/04:30am 24.8 23.3 19.5 72 3.4 ESE 26 35 14 19 1015.4 - 0.0
31/04:00am 24.8 23.8 19.7 73 3.3 ESE 24 33 13 18 1015.6 - 0.0
31/03:30am 24.7 23.6 19.4 72 3.4 ESE 24 32 13 17 1015.8 - 0.0
31/03:00am 24.7 23.5 19.2 71 3.5 ESE 24 33 13 18 1016.3 - 0.0
31/02:30am 24.8 23.8 19.7 73 3.3 ESE 24 32 13 17 1016.8 - 0.0
31/02:00am 24.9 24.0 19.9 74 3.2 ESE 24 30 13 16 1017.1 1017.1 0.0
31/01:30am 24.9 23.6 19.1 70 3.7 ESE 24 35 13 19 1017.5 - 0.0
31/01:00am 25.0 23.8 19.2 70 3.7 ESE 24 37 13 20 1017.9 - 0.0
31/12:30am 25.1 24.2 19.8 72 3.4 ESE 24 35 13 19 1018.0 - 0.0
31/12:00am 25.3 23.6 19.0 68 4.0 ESE 26 35 14 19 1018.1 - 0.0
 
Date/Time
WST
Temp
°C
App
Temp
°C
Dew
Point
Rel
Hum
%
Delta-T
°C
Wind Press
QNH
hPa
Press
MSL
hPa
Rain
since 9 am
mm
Dir
 
Spd
km/h
Gust
km/h
Spd
kts
Gust
kts
30/11:30pm 25.4 23.8 20.0 72 3.5 ESE 28 37 15 20 1018.3 - 0.0
30/11:00pm 25.5 24.2 19.8 70 3.7 SE 26 33 14 18 1018.3 1018.3 0.0
30/10:30pm 25.6 24.6 20.4 73 3.4 SE 26 35 14 19 1018.4 - 0.0
30/10:00pm 25.7 24.0 19.8 70 3.8 ESE 28 35 15 19 1018.3 - 0.0
30/09:30pm 25.7 23.4 19.3 67 4.1 ESE 30 39 16 21 1018.0 - 0.0
30/09:00pm 25.8 24.0 19.6 68 4.0 SE 28 35 15 19 1017.7 - 0.0
30/08:30pm 25.7 24.1 20.0 71 3.7 SE 28 35 15 19 1017.2 - 0.0
30/08:00pm 25.9 23.5 19.0 65 4.4 SE 30 41 16 22 1017.0 1017.0 0.0
30/07:30pm 25.8 24.2 20.1 71 3.7 SE 28 39 15 21 1016.7 - 0.0
30/07:00pm 26.1 23.7 19.1 65 4.5 SE 30 41 16 22 1016.3 - 0.0
30/06:30pm 26.5 24.2 20.2 68 4.1 SE 32 39 17 21 1016.0 - 0.0
30/06:00pm 26.5 24.3 20.4 69 4.0 SE 32 39 17 21 1015.9 - 0.0
30/05:30pm 27.0 25.3 19.8 64 4.7 SE 28 37 15 20 1015.8 - 0.0
30/05:00pm 27.0 24.9 19.8 64 4.7 SE 30 37 16 20 1015.6 1015.6 0.0
30/04:30pm 27.2 25.1 18.9 60 5.3 SE 28 35 15 19 1015.7 - 0.0
30/04:00pm 27.3 25.4 19.4 62 5.1 ESE 28 35 15 19 1015.7 - 0.0
30/03:30pm 27.6 25.2 18.3 57 5.9 ESE 28 33 15 18 1016.0 - 0.0
30/03:00pm 27.3 25.3 18.2 57 5.8 ESE 26 35 14 19 1016.3 - 0.0
30/02:30pm 27.5 25.5 19.1 60 5.4 SE 28 32 15 17 1016.5 - 0.0
30/02:00pm 27.5 25.0 18.9 59 5.5 SE 30 35 16 19 1016.9 1016.9 0.0
30/01:30pm 28.1 26.7 19.6 60 5.5 SE 26 35 14 19 1017.2 - 0.0
30/01:00pm 27.6 25.7 19.4 61 5.3 SE 28 37 15 20 1017.5 - 0.0
30/12:30pm 27.3 25.8 19.4 62 5.1 SE 26 35 14 19 1017.7 - 0.0
30/12:00pm 26.9 24.7 18.8 61 5.2 ESE 28 35 15 19 1017.8 - 0.0
30/11:30am 26.8 24.1 18.5 60 5.3 ESE 30 35 16 19 1017.9 - 0.0
30/11:00am 26.7 25.1 19.2 63 4.8 SE 26 35 14 19 1017.9 1017.9 0.0
30/10:30am 26.4 25.1 19.1 64 4.7 ESE 24 32 13 17 1017.7 - 0.0
30/10:00am 26.1 25.0 19.4 66 4.3 SE 24 32 13 17 1017.4 - 0.0
30/09:30am 25.9 24.4 19.5 68 4.1 SE 26 35 14 19 1017.3 - 0.0
30/09:00am 25.3 23.4 19.4 70 3.8 ESE 28 35 15 19 1017.0 - 0.0
30/08:30am 25.2 23.9 19.9 72 3.4 ESE 26 32 14 17 1016.4 - 0.0
30/08:00am 25.0 23.6 19.7 72 3.4 SE 26 33 14 18 1016.1 1016.1 0.0
30/07:30am 25.1 23.2 19.3 70 3.7 ESE 28 35 15 19 1015.9 - 0.0
30/07:00am 24.9 23.2 19.8 73 3.3 ESE 28 35 15 19 1015.6 - 0.0
30/06:30am 24.9 22.9 19.1 70 3.7 ESE 28 35 15 19 1015.4 - 0.0
30/06:00am 24.9 23.3 19.3 71 3.6 SE 26 32 14 17 1015.3 - 0.0
30/05:30am 24.9 23.7 19.3 71 3.6 ESE 24 32 13 17 1015.3 - 0.0
30/05:00am 25.0 24.2 19.2 70 3.7 ESE 22 30 12 16 1015.5 1015.5 0.0
30/04:30am 24.9 23.9 18.9 69 3.8 ESE 22 28 12 15 1015.7 - 0.0
30/04:00am 24.9 24.0 19.8 73 3.3 ESE 24 30 13 16 1015.8 - 0.0
30/03:30am 25.0 23.9 19.4 71 3.6 ESE 24 30 13 16 1015.9 - 0.0
30/03:00am 25.1 23.9 19.2 70 3.8 ESE 24 30 13 16 1016.2 - 0.0
30/02:30am 25.1 23.9 19.3 70 3.7 ESE 24 32 13 17 1016.3 - 0.0
30/02:00am 25.0 24.4 19.7 72 3.4 ESE 22 32 12 17 1016.6 1016.6 0.0
30/01:30am 25.2 23.6 19.1 69 3.9 ESE 26 33 14 18 1016.7 - 0.0
30/01:00am 25.4 24.1 19.8 71 3.6 ESE 26 35 14 19 1016.9 - 0.0
30/12:30am 25.2 24.3 19.8 72 3.5 ESE 24 32 13 17 1017.0 - 0.0
30/12:00am 25.4 24.6 20.0 72 3.5 ESE 24 32 13 17 1017.1 - 0.0
 
Date/Time
WST
Temp
°C
App
Temp
°C
Dew
Point
Rel
Hum
%
Delta-T
°C
Wind Press
QNH
hPa
Press
MSL
hPa
Rain
since 9 am
mm
Dir
 
Spd
km/h
Gust
km/h
Spd
kts
Gust
kts
29/11:30pm 25.4 24.4 19.7 70 3.7 ESE 24 32 13 17 1017.1 - 0.0
29/11:00pm 25.6 24.3 19.9 70 3.7 ESE 26 35 14 19 1016.9 1016.9 0.0
29/10:30pm 25.6 24.5 19.5 69 3.9 ESE 24 33 13 18 1016.7 - 0.0
29/10:00pm 25.6 24.5 19.5 69 3.9 ESE 24 33 13 18 1016.4 - 0.0

Other Formats:

Comma delimited format used in spreadsheet applications
http://www.bom.gov.au/fwo/IDW60801/IDW60801.96996.axf

JavaScript Object Notation format (JSON) in row-major order
http://www.bom.gov.au/fwo/IDW60801/IDW60801.96996.json